Rushville, OH

10:02 PM EST on March 04, 2015 (GMT -0500)
Rickenbacker International | Change Station
CLOSE
Current Station
Airport
Location: Rickenbacker,
Elevation: 745 ft
Nearby Weather Stations
Active Advisory: Winter Storm Warning Active Notice: Public Information Statement

Elev 745 ft 39.81 °N, 82.93 °W | Updated 1 hour ago

Snow
Snow
28 °F
Feels Like 20 °F
N
9
Wind Variable Wind from NW

Today
High -- | Low -- °F
--% Chance of Precip.
Yesterday
High -- | Low -- °F
Precip. -- in
6:58 AM 6:24 PM
Full, 100% visible
Pressure 30.11 in
Visibility 1.5 miles
Clouds Mostly Cloudy 700 ft
Mostly Cloudy 1400 ft
Overcast 2100 ft
Windchill 20 °F
Dew Point 27 °F
Humidity 94%
Rainfall 0.00 in
Snow Depth Not available.
UV 0 out of 12
Pollen .60 out of 12
Air Quality Not available.
Flu Activity Not available.
METAR KLCK 050155Z AUTO 32008KT 1 1/2SM -SN BKN007 BKN014 OVC021 M02/M03 A3011 RMK AO2 T10201029

More Conditions Fewer Conditions

Pressure 30.11 in
Visibility 1.5 miles
Clouds Mostly Cloudy 700 ft
Mostly Cloudy 1400 ft
Overcast 2100 ft
Windchill 20 °F
Dew Point 27 °F
Humidity 94%
Rainfall 0.00 in
Snow Depth Not available.
UV 0 out of 12
Pollen .60 out of 12
Air Quality Not available.
Flu Activity Not available.
METAR KLCK 050155Z AUTO 32008KT 1 1/2SM -SN BKN007 BKN014 OVC021 M02/M03 A3011 RMK AO2 T10201029

More Conditions Fewer Conditions

10-Day Weather Forecast

Almanac

Astronomy

Mar. 04, 2015 Rise Set
Actual Time
Civil Twilight
Nautical Twilight
Astronomical Twilight
Moon
Length of Visible Light
Length of Day
Tomorrow will be .
, % of the Moon is Illuminated

Today's Extremes

State Highs State Lows

Community

WunderPhotos

Upload Photos

1,802,641 photos uploaded!

WunderBlogs® & News

Nearby

Air Quality

  Air Quality AQ Index Pollutant
Not available.

Snow Depth

Station Depth Elevation

Earthquake Activity

City Distance Mag. Time & Date
Minimum magnitude displayed is 2.5.

Coastal Water Temperatures

Place Temperature

Nearby Weather Stations

Winter Storm Warning
Statement as of 4:01 PM EST on March 04, 2015

... Winter Storm Warning remains in effect until 1 PM EST
Thursday...

* hazard types... heavy snow.

* Accumulations... snow accumulation of 2 to 4 inches.

* Timing... heaviest snow accumulations will be from after sunset
through the early morning hours.

* Impacts... hazardous travel conditions are expected due to
reduced visibilities and snow accumulations.

Precautionary/preparedness actions...

Remember... a Winter Storm Warning means severe winter weather
conditions are imminent or highly likely. Stay tuned to NOAA
Weather Radio or your favorite source of information for the
latest updates. Additional details can also be found at
www.Weather.Gov/iln as well as on our facebook and twitter pages.